Forside
METAR-TAF:

METAR-TAF

Lufthavne :

Havre City-County Airport

Havre, Montana, USA

Breddekreds: 48-32-34N, længdekreds: 109-45-48W, højde: 789 m

Aktuelle vejr

Denne rapport blev lavet for 53 minutter siden, kl. 22:53 UTC
Vind 8 kt fra nord
Temperatur 16°C
Fugtighed 27%
Tryk 1026 hPa
Sigt: 16.1 km
skyfri

METAR: KHVR 192253Z AUTO 35008KT 10SM CLR 16/M03 A3030 RMK AO2 SLP271 T01611033

Tid: 17:46 (23:46 UTC)

Vejrudsigter

Denne rapport blev lavet for 26 minutter siden, kl. 23:20 UTC
Foreløbig gælder fra 20 på 00 UTC til 20 på 24 UTC
Vind 6 kt fra øst
Sigt: 10 km
skyfri
Fra 20 på 1800 UTC
Vind 13 kt fra vestsydvest med vindstød på up til 21 kt
Sigt: 10 km
skyfri

TAF: KHVR 192320Z 2000/2024 08006KT P6SM SKC FM201800 24013G21KT P6SM SKC

Vejrobservationer og prognoser fra mere end 4000 lufthavne (METAR og TAF).

De gule og røde prikker repræsenterer de meteorologiske stationer.

Flyt musen over at se navnet på stationen.

Så klik over at se vejr observationer og prognoser.

At skifte det kort: Klik på de grønne knapper med et sort kors for at zoome ind; på den grønne knap med en bindestreg for at zoome ud; eller på de grønne pile for tilstødende kort.


METAR-TAF: